createdAt,value
2017-02-17T00:00:07.308Z,6.40
2017-02-17T00:01:08.073Z,6.43
2017-02-17T00:02:07.802Z,6.33
2017-02-17T00:03:07.772Z,6.43
2017-02-17T00:04:07.238Z,6.38
2017-02-17T00:05:07.839Z,6.49
2017-02-17T00:06:07.430Z,6.46
2017-02-17T00:07:08.041Z,6.48
2017-02-17T00:08:07.635Z,6.47
2017-02-17T00:09:07.252Z,6.46
2017-02-17T00:10:07.800Z,6.55
2017-02-17T00:11:07.493Z,6.56
2017-02-17T00:12:08.289Z,6.62
2017-02-17T00:13:07.868Z,6.58
2017-02-17T00:14:07.570Z,6.57
2017-02-17T00:15:07.683Z,6.61
2017-02-17T00:16:07.200Z,6.71
2017-02-17T00:17:07.864Z,6.61
2017-02-17T00:18:07.478Z,6.65
2017-02-17T00:19:08.143Z,6.66
2017-02-17T00:20:07.760Z,6.71
2017-02-17T00:21:07.371Z,6.65
2017-02-17T00:22:07.851Z,6.51
2017-02-17T00:23:07.402Z,6.57
2017-02-17T00:24:07.915Z,6.59
2017-02-17T00:25:07.453Z,6.63
2017-02-17T00:26:08.051Z,6.61
2017-02-17T00:27:07.553Z,6.59
2017-02-17T00:28:08.192Z,6.64
2017-02-17T00:29:07.703Z,6.64
2017-02-17T00:30:07.200Z,6.68
2017-02-17T00:31:07.752Z,6.73
2017-02-17T00:32:07.418Z,6.70
2017-02-17T00:33:07.932Z,6.70
2017-02-17T00:34:07.588Z,6.74
2017-02-17T00:35:07.141Z,6.67
2017-02-17T00:36:07.796Z,6.66
2017-02-17T00:37:07.500Z,6.68
2017-02-17T00:38:08.144Z,6.74
2017-02-17T00:39:07.760Z,6.64
2017-02-17T00:40:07.282Z,6.68
2017-02-17T00:41:07.855Z,6.64
2017-02-17T00:42:07.381Z,6.75
2017-02-17T00:43:07.984Z,6.72
2017-02-17T00:44:07.663Z,6.73
2017-02-17T00:45:07.137Z,6.75
2017-02-17T00:46:07.580Z,6.73
2017-02-17T00:47:07.103Z,6.83
2017-02-17T00:48:07.662Z,6.79
2017-02-17T00:49:07.189Z,6.77
2017-02-17T00:50:07.808Z,6.81
2017-02-17T00:51:07.339Z,6.82
2017-02-17T00:52:07.951Z,6.83
2017-02-17T00:53:07.493Z,6.75
2017-02-17T00:54:08.361Z,6.74
2017-02-17T00:55:08.071Z,6.80
2017-02-17T00:56:07.678Z,6.80
2017-02-17T00:57:07.290Z,6.84
2017-02-17T00:58:07.906Z,6.80
2017-02-17T00:59:07.542Z,6.76
2017-02-17T01:00:08.210Z,6.78
2017-02-17T01:01:07.870Z,6.80
2017-02-17T01:02:07.451Z,6.89
2017-02-17T01:03:08.134Z,6.93
2017-02-17T01:04:07.729Z,6.86
2017-02-17T01:05:07.507Z,6.84
2017-02-17T01:06:08.459Z,6.88
2017-02-17T01:07:07.994Z,6.88
2017-02-17T01:08:07.733Z,6.80
2017-02-17T01:09:07.230Z,6.87
2017-02-17T01:10:07.155Z,6.91
2017-02-17T01:11:07.694Z,6.93
2017-02-17T01:12:07.240Z,6.90
2017-02-17T01:13:07.733Z,6.95
2017-02-17T01:14:07.669Z,6.92
2017-02-17T01:15:07.723Z,7.00
2017-02-17T01:16:07.200Z,6.98
2017-02-17T01:17:07.795Z,6.95
2017-02-17T01:18:08.207Z,6.96
2017-02-17T01:19:07.732Z,6.95
2017-02-17T01:20:07.341Z,6.98
2017-02-17T01:21:07.889Z,7.00
2017-02-17T01:22:07.419Z,6.94
2017-02-17T01:23:07.946Z,6.96
2017-02-17T01:24:07.473Z,6.93
2017-02-17T01:25:07.976Z,6.98
2017-02-17T01:26:07.529Z,7.01
2017-02-17T01:27:08.321Z,6.97
2017-02-17T01:28:07.903Z,7.01
2017-02-17T01:29:07.553Z,7.00
2017-02-17T01:30:08.387Z,7.00
2017-02-17T01:31:07.984Z,7.00
2017-02-17T01:32:07.871Z,7.02
2017-02-17T01:33:07.357Z,7.03
2017-02-17T01:34:08.012Z,7.08
2017-02-17T01:35:07.749Z,6.99
2017-02-17T01:36:07.242Z,7.05
2017-02-17T01:37:07.776Z,7.05
2017-02-17T01:38:07.662Z,6.97
2017-02-17T01:39:07.430Z,7.02
2017-02-17T01:40:07.900Z,6.97
2017-02-17T01:41:07.776Z,6.94
2017-02-17T01:42:07.522Z,6.95
2017-02-17T01:43:08.152Z,6.96
2017-02-17T01:44:07.894Z,7.07
2017-02-17T01:45:07.469Z,7.07
2017-02-17T01:46:08.130Z,7.09
2017-02-17T01:47:07.653Z,7.06
2017-02-17T01:48:07.470Z,6.93
2017-02-17T01:49:08.111Z,6.99
2017-02-17T01:50:07.709Z,6.98
2017-02-17T01:51:07.911Z,6.96
2017-02-17T01:52:07.437Z,6.90
2017-02-17T01:53:08.054Z,7.01
2017-02-17T01:54:08.588Z,6.96
2017-02-17T01:55:07.293Z,6.98
2017-02-17T01:56:07.948Z,6.96
2017-02-17T01:57:07.553Z,6.99
2017-02-17T01:58:07.610Z,7.01
2017-02-17T01:59:07.275Z,7.05
2017-02-17T02:00:07.855Z,7.02
2017-02-17T02:01:07.420Z,7.07
2017-02-17T02:02:08.039Z,7.08
2017-02-17T02:03:07.792Z,6.98
2017-02-17T02:04:07.280Z,7.02
2017-02-17T02:05:07.937Z,6.98
2017-02-17T02:06:07.577Z,6.95
2017-02-17T02:07:07.179Z,6.94
2017-02-17T02:08:07.669Z,6.98
2017-02-17T02:09:07.299Z,7.00
2017-02-17T02:10:08.059Z,6.97
2017-02-17T02:11:07.567Z,7.01
2017-02-17T02:12:07.075Z,6.94
2017-02-17T02:13:07.590Z,6.94
2017-02-17T02:14:07.152Z,6.91
2017-02-17T02:15:07.765Z,6.95
2017-02-17T02:16:07.310Z,7.00
2017-02-17T02:17:08.011Z,7.05
2017-02-17T02:18:07.844Z,6.99
2017-02-17T02:19:07.433Z,6.99
2017-02-17T02:20:08.112Z,6.98
2017-02-17T02:21:07.696Z,7.02
2017-02-17T02:22:07.387Z,7.05
2017-02-17T02:23:08.065Z,7.04
2017-02-17T02:24:07.899Z,7.05
2017-02-17T02:25:07.383Z,7.04
2017-02-17T02:26:08.011Z,7.06
2017-02-17T02:27:07.700Z,7.02
2017-02-17T02:28:07.290Z,6.99
2017-02-17T02:29:07.748Z,7.02
2017-02-17T02:30:07.328Z,7.10
2017-02-17T02:31:07.881Z,7.02
2017-02-17T02:32:07.519Z,7.03
2017-02-17T02:33:08.257Z,7.03
2017-02-17T02:34:07.990Z,7.02
2017-02-17T02:35:07.561Z,7.03
2017-02-17T02:36:08.129Z,7.02
2017-02-17T02:37:07.732Z,7.11
2017-02-17T02:38:07.375Z,7.10
2017-02-17T02:39:07.980Z,7.03
2017-02-17T02:40:07.536Z,7.05
2017-02-17T02:41:08.227Z,7.05
2017-02-17T02:42:07.862Z,7.14
2017-02-17T02:43:07.383Z,6.98
2017-02-17T02:44:08.023Z,7.03
2017-02-17T02:45:07.671Z,7.11
2017-02-17T02:46:07.195Z,7.01
2017-02-17T02:47:07.713Z,6.97
2017-02-17T02:48:07.295Z,7.04
2017-02-17T02:49:08.714Z,7.01
2017-02-17T02:50:07.539Z,7.06
2017-02-17T02:51:08.096Z,7.08
2017-02-17T02:52:07.658Z,7.06
2017-02-17T02:53:07.245Z,7.09
2017-02-17T02:54:08.099Z,7.10
2017-02-17T02:55:07.653Z,7.03
2017-02-17T02:56:07.078Z,7.07
2017-02-17T02:57:07.811Z,7.09
2017-02-17T02:58:07.336Z,7.07
2017-02-17T02:59:08.001Z,7.15
2017-02-17T03:00:07.534Z,7.13
2017-02-17T03:01:08.174Z,7.04
2017-02-17T03:02:07.935Z,7.11
2017-02-17T03:03:07.825Z,7.16
2017-02-17T03:04:07.623Z,7.12
2017-02-17T03:05:07.316Z,7.02
2017-02-17T03:06:07.854Z,6.97
2017-02-17T03:07:07.377Z,7.00
2017-02-17T03:08:07.964Z,6.99
2017-02-17T03:09:07.584Z,7.00
2017-02-17T03:10:07.132Z,6.81
2017-02-17T03:11:07.754Z,6.93
2017-02-17T03:12:07.290Z,6.89
2017-02-17T03:13:07.929Z,6.95
2017-02-17T03:14:07.452Z,6.83
2017-02-17T03:15:08.331Z,6.94
2017-02-17T03:16:07.948Z,6.98
2017-02-17T03:17:07.645Z,6.91
2017-02-17T03:18:07.669Z,7.01
2017-02-17T03:19:07.162Z,6.99
2017-02-17T03:20:07.742Z,6.98
2017-02-17T03:21:07.317Z,6.89
2017-02-17T03:22:08.046Z,6.87
2017-02-17T03:23:07.511Z,6.85
2017-02-17T03:24:08.410Z,6.86
2017-02-17T03:25:08.150Z,6.73
2017-02-17T03:26:07.659Z,6.80
2017-02-17T03:27:07.574Z,6.83
2017-02-17T03:28:07.167Z,6.76
2017-02-17T03:29:09.037Z,6.71
2017-02-17T03:30:07.704Z,6.72
2017-02-17T03:31:07.212Z,6.73
2017-02-17T03:32:07.943Z,6.61
2017-02-17T03:33:07.445Z,6.67
2017-02-17T03:34:08.265Z,6.64
2017-02-17T03:35:07.853Z,6.66
2017-02-17T03:36:07.475Z,6.77
2017-02-17T03:37:08.102Z,6.71
2017-02-17T03:38:07.611Z,6.66
2017-02-17T03:39:07.261Z,6.80
2017-02-17T03:40:08.028Z,6.67
2017-02-17T03:41:07.483Z,6.75
2017-02-17T03:42:08.153Z,6.64
2017-02-17T03:43:07.704Z,6.60
2017-02-17T03:44:07.293Z,6.74
2017-02-17T03:45:07.898Z,6.74
2017-02-17T03:46:07.533Z,6.64
2017-02-17T03:47:08.190Z,6.67
2017-02-17T03:48:07.919Z,6.66
2017-02-17T03:49:07.563Z,6.64
2017-02-17T03:50:07.084Z,6.74
2017-02-17T03:51:07.689Z,6.75
2017-02-17T03:52:07.192Z,6.73
2017-02-17T03:53:07.748Z,6.71
2017-02-17T03:54:07.344Z,6.73
2017-02-17T03:55:07.972Z,6.61
2017-02-17T03:56:07.808Z,6.66
2017-02-17T03:57:07.320Z,6.57
2017-02-17T03:58:07.943Z,6.63
2017-02-17T03:59:07.526Z,6.63
2017-02-17T04:00:08.224Z,6.69
2017-02-17T04:01:07.809Z,6.65
2017-02-17T04:02:07.539Z,6.56
2017-02-17T04:03:08.178Z,6.50
2017-02-17T04:04:07.755Z,6.60
2017-02-17T04:05:07.395Z,6.58
2017-02-17T04:06:07.930Z,6.42
2017-02-17T04:07:07.469Z,6.56
2017-02-17T04:08:08.013Z,6.68
2017-02-17T04:09:07.860Z,6.66
2017-02-17T04:10:07.482Z,6.69
2017-02-17T04:11:08.113Z,6.79
2017-02-17T04:12:07.710Z,6.76
2017-02-17T04:13:07.357Z,6.84
2017-02-17T04:14:08.146Z,6.81
2017-02-17T04:15:07.721Z,6.87
2017-02-17T04:16:07.171Z,6.78
2017-02-17T04:17:08.179Z,6.82
2017-02-17T04:18:07.801Z,6.81
2017-02-17T04:19:07.708Z,6.82
2017-02-17T04:20:07.297Z,6.81
2017-02-17T04:21:08.063Z,6.84
2017-02-17T04:22:07.193Z,6.81
2017-02-17T04:23:07.810Z,6.75
2017-02-17T04:24:07.418Z,6.74
2017-02-17T04:25:08.006Z,6.73
2017-02-17T04:26:07.757Z,6.69
2017-02-17T04:27:07.422Z,6.57
2017-02-17T04:28:08.042Z,6.61
2017-02-17T04:29:07.681Z,6.61
2017-02-17T04:30:07.182Z,6.67
2017-02-17T04:31:07.851Z,6.54
2017-02-17T04:32:07.451Z,6.53
2017-02-17T04:33:08.042Z,6.59
2017-02-17T04:34:07.650Z,6.45
2017-02-17T04:35:07.242Z,6.51
2017-02-17T04:36:07.817Z,6.62
2017-02-17T04:37:07.331Z,6.64
2017-02-17T04:38:07.827Z,6.74
2017-02-17T04:39:07.466Z,6.57
2017-02-17T04:40:07.985Z,6.59
2017-02-17T04:41:07.657Z,6.68
2017-02-17T04:42:07.594Z,6.66
2017-02-17T04:43:07.145Z,6.63
2017-02-17T04:44:07.750Z,6.40
2017-02-17T04:45:07.341Z,6.63
2017-02-17T04:46:07.943Z,6.69
2017-02-17T04:47:07.443Z,6.69
2017-02-17T04:48:08.001Z,6.62
2017-02-17T04:49:07.567Z,6.73
2017-02-17T04:50:07.301Z,6.76
2017-02-17T04:51:08.111Z,6.78
2017-02-17T04:52:07.934Z,6.70
2017-02-17T04:53:07.462Z,6.71
2017-02-17T04:54:08.136Z,6.57
2017-02-17T04:55:07.734Z,6.56
2017-02-17T04:56:07.270Z,6.51
2017-02-17T04:57:07.861Z,6.65
2017-02-17T04:58:07.471Z,6.65
2017-02-17T04:59:08.119Z,6.52
2017-02-17T05:00:07.717Z,6.63
2017-02-17T05:01:07.267Z,6.67
2017-02-17T05:02:08.071Z,6.67
2017-02-17T05:03:07.853Z,6.62
2017-02-17T05:04:07.572Z,6.67
2017-02-17T05:05:07.098Z,6.74
2017-02-17T05:06:07.632Z,6.81
2017-02-17T05:07:07.199Z,6.87
2017-02-17T05:08:08.002Z,6.89
2017-02-17T05:09:07.564Z,6.75
2017-02-17T05:10:07.067Z,6.77
2017-02-17T05:11:07.616Z,6.72
2017-02-17T05:12:07.173Z,6.65
2017-02-17T05:13:07.848Z,6.60
2017-02-17T05:14:07.391Z,6.74
2017-02-17T05:15:08.031Z,6.79
2017-02-17T05:16:07.345Z,6.68
2017-02-17T05:17:08.092Z,6.66
2017-02-17T05:18:07.631Z,6.77
2017-02-17T05:19:07.252Z,6.77
2017-02-17T05:20:07.851Z,6.71
2017-02-17T05:21:07.473Z,6.67
2017-02-17T05:22:08.032Z,6.67
2017-02-17T05:23:07.647Z,6.76
2017-02-17T05:24:07.267Z,6.82
2017-02-17T05:25:10.558Z,6.87
2017-02-17T05:26:07.376Z,6.84
2017-02-17T05:27:07.978Z,6.85
2017-02-17T05:28:07.779Z,6.87
2017-02-17T05:29:07.333Z,6.83
2017-02-17T05:30:07.927Z,6.81
2017-02-17T05:31:07.515Z,6.83
2017-02-17T05:32:08.256Z,6.87
2017-02-17T05:33:07.847Z,6.88
2017-02-17T05:34:08.268Z,6.85
2017-02-17T05:35:07.868Z,6.86
2017-02-17T05:36:07.383Z,6.83
2017-02-17T05:37:07.904Z,6.90
2017-02-17T05:38:07.511Z,6.89
2017-02-17T05:39:08.101Z,6.90
2017-02-17T05:40:07.612Z,6.90
2017-02-17T05:41:07.114Z,6.83
2017-02-17T05:42:07.688Z,6.90
2017-02-17T05:43:07.231Z,6.90
2017-02-17T05:44:07.814Z,6.91
2017-02-17T05:45:07.412Z,6.82
2017-02-17T05:46:08.242Z,6.88
2017-02-17T05:47:07.859Z,6.90
2017-02-17T05:48:08.087Z,6.91
2017-02-17T05:49:07.723Z,6.80
2017-02-17T05:50:07.319Z,6.83
2017-02-17T05:51:07.840Z,6.88
2017-02-17T05:52:07.411Z,6.93
2017-02-17T05:53:08.045Z,6.81
2017-02-17T05:54:07.666Z,6.86
2017-02-17T05:55:07.245Z,6.94
2017-02-17T05:56:07.839Z,6.86
2017-02-17T05:57:07.716Z,6.86
2017-02-17T05:58:07.335Z,6.92
2017-02-17T05:59:07.979Z,6.90
2017-02-17T06:00:07.636Z,6.81
2017-02-17T06:01:07.075Z,6.85
2017-02-17T06:02:07.611Z,6.87
2017-02-17T06:03:07.105Z,6.85
2017-02-17T06:04:07.593Z,6.93
2017-02-17T06:05:07.126Z,6.89
2017-02-17T06:06:07.678Z,6.87
2017-02-17T06:07:07.764Z,6.91
2017-02-17T06:08:07.255Z,6.86
2017-02-17T06:09:07.735Z,6.82
2017-02-17T06:10:07.288Z,6.88
2017-02-17T06:11:07.887Z,6.90
2017-02-17T06:12:07.471Z,6.89
2017-02-17T06:13:08.004Z,6.90
2017-02-17T06:14:07.563Z,6.89
2017-02-17T06:15:08.760Z,6.87
2017-02-17T06:16:07.189Z,6.86
2017-02-17T06:17:08.053Z,6.78
2017-02-17T06:18:07.632Z,6.79
2017-02-17T06:19:07.448Z,6.81
2017-02-17T06:20:08.512Z,6.82
2017-02-17T06:21:08.098Z,6.75
2017-02-17T06:22:07.663Z,6.82
2017-02-17T06:23:07.183Z,6.74
2017-02-17T06:24:07.639Z,6.80
2017-02-17T06:25:07.087Z,6.93
2017-02-17T06:26:07.615Z,6.84
2017-02-17T06:27:07.407Z,6.85
2017-02-17T06:28:08.262Z,6.86
2017-02-17T06:29:08.142Z,6.89
2017-02-17T06:30:07.976Z,6.88
2017-02-17T06:31:07.861Z,6.93
2017-02-17T06:32:07.482Z,6.91
2017-02-17T06:33:08.094Z,6.82
2017-02-17T06:34:07.625Z,6.93
2017-02-17T06:35:07.201Z,6.91
2017-02-17T06:36:07.847Z,6.85
2017-02-17T06:37:07.479Z,6.99
2017-02-17T06:38:08.011Z,6.99
2017-02-17T06:39:07.621Z,6.97
2017-02-17T06:40:07.441Z,6.92
2017-02-17T06:41:08.124Z,6.94
2017-02-17T06:42:07.824Z,6.98
2017-02-17T06:43:07.328Z,7.04
2017-02-17T06:44:07.898Z,7.01
2017-02-17T06:45:07.617Z,6.99
2017-02-17T06:46:07.264Z,6.98
2017-02-17T06:47:07.973Z,7.02
2017-02-17T06:48:07.579Z,7.01
2017-02-17T06:49:07.101Z,7.05
2017-02-17T06:50:07.708Z,6.97
2017-02-17T06:51:07.510Z,6.92
2017-02-17T06:52:08.128Z,6.93
2017-02-17T06:53:07.772Z,6.91
2017-02-17T06:54:07.336Z,6.95
2017-02-17T06:55:07.844Z,6.83
2017-02-17T06:56:07.421Z,6.91
2017-02-17T06:57:08.011Z,7.00
2017-02-17T06:58:07.595Z,6.88
2017-02-17T06:59:07.098Z,6.91
2017-02-17T07:00:07.701Z,6.98
2017-02-17T07:01:07.384Z,7.04
2017-02-17T07:02:08.454Z,6.92
2017-02-17T07:03:08.271Z,7.10
2017-02-17T07:04:07.994Z,7.08
2017-02-17T07:05:07.647Z,7.07
2017-02-17T07:06:07.175Z,7.11
2017-02-17T07:07:07.733Z,6.97
2017-02-17T07:08:07.248Z,6.98
2017-02-17T07:09:07.841Z,7.08
2017-02-17T07:10:07.413Z,6.99
2017-02-17T07:11:08.250Z,6.98
2017-02-17T07:12:07.856Z,6.97
2017-02-17T07:13:07.560Z,7.04
2017-02-17T07:14:08.184Z,7.01
2017-02-17T07:15:07.342Z,7.00
2017-02-17T07:16:07.858Z,7.11
2017-02-17T07:17:07.579Z,7.05
2017-02-17T07:18:07.103Z,6.86
2017-02-17T07:19:07.553Z,7.06
2017-02-17T07:20:07.928Z,7.00
2017-02-17T07:21:07.435Z,7.06
2017-02-17T07:22:08.064Z,7.02
2017-02-17T07:23:07.837Z,7.00
2017-02-17T07:24:07.484Z,7.12
2017-02-17T07:25:08.094Z,7.17
2017-02-17T07:26:07.616Z,7.19
2017-02-17T07:27:07.179Z,7.28
2017-02-17T07:28:07.720Z,7.21
2017-02-17T07:29:07.236Z,7.17
2017-02-17T07:30:07.868Z,7.13
2017-02-17T07:31:07.493Z,7.05
2017-02-17T07:32:08.233Z,7.14
2017-02-17T07:33:07.763Z,7.09
2017-02-17T07:34:07.553Z,7.09
2017-02-17T07:35:08.107Z,6.92
2017-02-17T07:36:07.633Z,6.80
2017-02-17T07:37:07.168Z,6.85
2017-02-17T07:38:07.665Z,7.03
2017-02-17T07:39:07.191Z,6.98
2017-02-17T07:40:07.764Z,7.08
2017-02-17T07:41:07.279Z,7.13
2017-02-17T07:42:07.902Z,7.20
2017-02-17T07:43:07.380Z,7.14
2017-02-17T07:44:07.884Z,7.15
2017-02-17T07:45:07.774Z,7.16
2017-02-17T07:46:07.253Z,7.12
2017-02-17T07:47:07.753Z,7.20
2017-02-17T07:48:07.376Z,7.12
2017-02-17T07:49:07.869Z,6.94
2017-02-17T07:50:07.415Z,6.89
2017-02-17T07:51:08.017Z,7.04
2017-02-17T07:52:07.645Z,7.10
2017-02-17T07:53:07.181Z,7.12
2017-02-17T07:54:07.814Z,7.07
2017-02-17T07:55:07.545Z,6.93
2017-02-17T07:56:07.151Z,7.11
2017-02-17T07:57:07.929Z,7.11
2017-02-17T07:58:07.515Z,7.10
2017-02-17T07:59:08.053Z,7.19
2017-02-17T08:00:07.645Z,7.13
2017-02-17T08:01:07.307Z,6.95
2017-02-17T08:02:08.021Z,7.10
2017-02-17T08:03:07.594Z,7.19
2017-02-17T08:04:07.220Z,6.83
2017-02-17T08:05:07.843Z,6.86
2017-02-17T08:06:07.371Z,7.03
2017-02-17T08:07:07.956Z,7.11
2017-02-17T08:08:07.791Z,7.21
2017-02-17T08:09:07.343Z,7.17
2017-02-17T08:10:07.935Z,7.15
2017-02-17T08:11:07.411Z,7.14
2017-02-17T08:12:08.038Z,7.18
2017-02-17T08:13:07.550Z,7.23
2017-02-17T08:14:07.081Z,7.23
2017-02-17T08:15:07.713Z,7.13
2017-02-17T08:16:07.611Z,7.03
2017-02-17T08:17:07.224Z,7.14
2017-02-17T08:18:07.807Z,7.07
2017-02-17T08:19:07.683Z,6.99
2017-02-17T08:20:07.266Z,6.99
2017-02-17T08:21:07.794Z,7.10
2017-02-17T08:22:07.473Z,6.86
2017-02-17T08:23:08.063Z,6.80
2017-02-17T08:24:07.512Z,6.91
2017-02-17T08:25:07.108Z,7.01
2017-02-17T08:26:07.667Z,6.94
2017-02-17T08:27:07.204Z,6.95
2017-02-17T08:28:07.802Z,7.04
2017-02-17T08:29:07.343Z,7.12
2017-02-17T08:30:07.936Z,6.73
2017-02-17T08:31:07.545Z,6.88
2017-02-17T08:32:08.294Z,6.91
2017-02-17T08:33:08.134Z,6.91
2017-02-17T08:34:07.655Z,6.98
2017-02-17T08:35:07.767Z,6.90
2017-02-17T08:36:07.316Z,7.01
2017-02-17T08:37:08.007Z,7.08
2017-02-17T08:38:07.505Z,6.93
2017-02-17T08:39:08.047Z,6.95
2017-02-17T08:40:07.725Z,6.79
2017-02-17T08:41:07.624Z,6.94
2017-02-17T08:42:07.175Z,6.97
2017-02-17T08:43:07.683Z,7.00
2017-02-17T08:44:07.213Z,6.97
2017-02-17T08:45:07.763Z,6.86
2017-02-17T08:46:07.305Z,6.99
2017-02-17T08:47:07.321Z,7.12
2017-02-17T08:48:08.131Z,7.05
2017-02-17T08:49:07.966Z,7.09
2017-02-17T08:50:07.562Z,7.06
2017-02-17T08:51:08.192Z,7.08
2017-02-17T08:52:07.793Z,7.19
2017-02-17T08:53:07.343Z,7.04
2017-02-17T08:54:07.882Z,6.97
2017-02-17T08:55:07.399Z,7.13
2017-02-17T08:56:07.920Z,7.12
2017-02-17T08:57:07.989Z,7.07
2017-02-17T08:58:07.500Z,7.09
2017-02-17T08:59:08.082Z,7.06
2017-02-17T09:00:07.678Z,7.09
2017-02-17T09:01:07.337Z,7.10
2017-02-17T09:02:08.152Z,7.19
2017-02-17T09:03:07.747Z,7.25
2017-02-17T09:04:07.289Z,7.25
2017-02-17T09:05:07.920Z,7.20
2017-02-17T09:06:07.473Z,7.30
2017-02-17T09:07:08.047Z,7.33
2017-02-17T09:08:07.919Z,7.27
2017-02-17T09:09:07.580Z,7.35
2017-02-17T09:10:07.355Z,7.37
2017-02-17T09:11:07.867Z,7.29
2017-02-17T09:12:07.874Z,7.22
2017-02-17T09:13:07.421Z,7.26
2017-02-17T09:14:08.117Z,7.21
2017-02-17T09:15:07.637Z,7.20
2017-02-17T09:16:07.196Z,7.09
2017-02-17T09:17:07.973Z,7.08
2017-02-17T09:18:07.538Z,7.10
2017-02-17T09:19:07.725Z,7.10
2017-02-17T09:20:07.624Z,7.17
2017-02-17T09:21:07.282Z,7.09
2017-02-17T09:22:08.129Z,7.11
2017-02-17T09:23:07.685Z,7.14
2017-02-17T09:24:07.279Z,7.17
2017-02-17T09:25:07.866Z,7.14
2017-02-17T09:26:07.425Z,7.08
2017-02-17T09:27:08.437Z,6.97
2017-02-17T09:28:08.007Z,6.96
2017-02-17T09:29:07.516Z,6.99
2017-02-17T09:30:08.022Z,7.00
2017-02-17T09:31:07.649Z,6.95
2017-02-17T09:32:07.777Z,7.02
2017-02-17T09:33:07.381Z,7.17
2017-02-17T09:34:08.021Z,6.84
2017-02-17T09:35:07.539Z,6.92
2017-02-17T09:36:08.063Z,6.79
2017-02-17T09:37:07.613Z,6.89
2017-02-17T09:38:07.164Z,6.80
2017-02-17T09:39:07.713Z,6.92
2017-02-17T09:40:07.558Z,6.88
2017-02-17T09:41:08.395Z,6.80
2017-02-17T09:42:08.029Z,6.76
2017-02-17T09:43:07.541Z,6.71
2017-02-17T09:44:08.126Z,6.70
2017-02-17T09:45:07.634Z,6.37
2017-02-17T09:46:07.138Z,6.54
2017-02-17T09:47:07.663Z,6.62
2017-02-17T09:48:07.292Z,6.78
2017-02-17T09:49:07.946Z,6.83
2017-02-17T09:50:07.564Z,6.55
2017-02-17T09:51:07.337Z,6.70
2017-02-17T09:52:07.932Z,6.92
2017-02-17T09:53:07.678Z,6.76
2017-02-17T09:54:07.207Z,6.87
2017-02-17T09:55:07.790Z,6.93
2017-02-17T09:56:07.228Z,6.93
2017-02-17T09:57:07.917Z,6.94
2017-02-17T09:58:08.401Z,6.92
2017-02-17T09:59:07.995Z,6.80
2017-02-17T10:00:07.614Z,6.56
2017-02-17T10:01:07.501Z,6.53
2017-02-17T10:02:08.248Z,6.65
2017-02-17T10:03:08.118Z,6.51
2017-02-17T10:04:07.940Z,6.76
2017-02-17T10:05:07.441Z,6.83
2017-02-17T10:06:07.972Z,6.84
2017-02-17T10:07:07.506Z,6.95
2017-02-17T10:08:08.357Z,6.78
2017-02-17T10:09:07.889Z,6.51
2017-02-17T10:10:07.512Z,6.79
2017-02-17T10:11:08.157Z,6.73
2017-02-17T10:12:07.708Z,6.81
2017-02-17T10:13:07.290Z,6.95
2017-02-17T10:14:07.850Z,6.94
2017-02-17T10:15:07.430Z,6.75
2017-02-17T10:16:08.082Z,6.92
2017-02-17T10:17:07.751Z,6.84
2017-02-17T10:18:07.351Z,6.40
2017-02-17T10:19:07.923Z,6.75
2017-02-17T10:20:07.607Z,6.68
2017-02-17T10:21:07.112Z,6.77
2017-02-17T10:22:07.572Z,6.31
2017-02-17T10:23:07.530Z,6.56
2017-02-17T10:24:08.252Z,6.67
2017-02-17T10:25:08.148Z,6.41
2017-02-17T10:26:07.712Z,6.55
2017-02-17T10:27:07.186Z,6.76
2017-02-17T10:28:07.703Z,6.76
2017-02-17T10:29:07.210Z,6.80
2017-02-17T10:30:07.719Z,6.90
2017-02-17T10:31:07.333Z,6.61
2017-02-17T10:32:07.941Z,6.79
2017-02-17T10:33:07.853Z,6.77
2017-02-17T10:34:07.729Z,6.68
2017-02-17T10:35:07.300Z,6.46
2017-02-17T10:36:07.111Z,6.47
2017-02-17T10:37:07.629Z,6.63
2017-02-17T10:38:07.102Z,6.72
2017-02-17T10:39:07.634Z,6.80
2017-02-17T10:40:07.199Z,6.82
2017-02-17T10:41:07.841Z,6.92
2017-02-17T10:42:07.399Z,7.13
2017-02-17T10:43:07.966Z,7.10
2017-02-17T10:44:07.581Z,6.83
2017-02-17T10:45:07.458Z,7.00
2017-02-17T10:46:07.993Z,6.73
2017-02-17T10:47:07.611Z,6.63
2017-02-17T10:48:07.123Z,6.51
2017-02-17T10:49:07.906Z,6.12
2017-02-17T10:50:07.509Z,6.36
2017-02-17T10:51:08.117Z,6.39
2017-02-17T10:52:07.730Z,6.46
2017-02-17T10:53:07.282Z,6.57
2017-02-17T10:54:07.872Z,6.46
2017-02-17T10:55:07.605Z,6.25
2017-02-17T10:56:07.398Z,6.32
2017-02-17T10:57:08.071Z,6.49
2017-02-17T10:58:07.742Z,6.67
2017-02-17T10:59:07.224Z,6.52
2017-02-17T11:00:07.898Z,6.29
2017-02-17T11:01:07.477Z,6.16
2017-02-17T11:02:08.127Z,6.41
2017-02-17T11:03:07.704Z,6.28
2017-02-17T11:04:07.217Z,6.19
2017-02-17T11:05:07.808Z,6.12
2017-02-17T11:06:07.610Z,6.16
2017-02-17T11:07:07.122Z,6.38
2017-02-17T11:08:07.828Z,6.21
2017-02-17T11:09:07.330Z,6.30
2017-02-17T11:10:07.966Z,6.42
2017-02-17T11:11:07.490Z,6.51
2017-02-17T11:12:08.121Z,6.60
2017-02-17T11:13:07.634Z,6.54
2017-02-17T11:14:07.130Z,6.20
2017-02-17T11:15:07.654Z,6.39
2017-02-17T11:16:08.457Z,6.52
2017-02-17T11:17:08.176Z,6.53
2017-02-17T11:18:07.783Z,6.61
2017-02-17T11:19:07.483Z,6.65
2017-02-17T11:20:08.386Z,6.24
2017-02-17T11:21:08.006Z,6.32
2017-02-17T11:22:07.797Z,6.49
2017-02-17T11:23:07.371Z,6.48
2017-02-17T11:24:08.184Z,6.48
2017-02-17T11:25:07.839Z,6.55
2017-02-17T11:26:07.508Z,6.65
2017-02-17T11:27:08.060Z,6.52
2017-02-17T11:28:07.843Z,6.50
2017-02-17T11:29:07.534Z,6.69
2017-02-17T11:30:08.183Z,6.59
2017-02-17T11:31:07.723Z,6.65
2017-02-17T11:32:07.443Z,6.50
2017-02-17T11:33:07.948Z,6.51
2017-02-17T11:34:27.094Z,6.46
2017-02-17T11:35:07.755Z,6.62
2017-02-17T11:36:07.284Z,6.65
2017-02-17T11:37:07.850Z,6.45
2017-02-17T11:38:07.744Z,6.54
2017-02-17T11:39:07.374Z,6.59
2017-02-17T11:40:08.195Z,6.57
2017-02-17T11:41:07.824Z,6.50
2017-02-17T11:42:07.360Z,6.52
2017-02-17T11:43:08.133Z,6.52
2017-02-17T11:44:07.747Z,6.44
2017-02-17T11:45:07.359Z,6.45
2017-02-17T11:46:08.044Z,6.46
2017-02-17T11:47:07.682Z,6.54
2017-02-17T11:48:07.602Z,6.25
2017-02-17T11:49:07.461Z,6.25
2017-02-17T11:50:08.347Z,6.23
2017-02-17T11:51:08.173Z,6.42
2017-02-17T11:52:07.825Z,6.21
2017-02-17T11:53:07.586Z,6.26
2017-02-17T11:54:07.147Z,6.29
2017-02-17T11:55:07.715Z,6.38
2017-02-17T11:56:07.336Z,6.55
2017-02-17T11:57:07.848Z,6.56
2017-02-17T11:58:07.399Z,6.40
2017-02-17T11:59:07.351Z,6.27
2017-02-17T12:00:07.958Z,6.31
2017-02-17T12:01:07.659Z,6.43
2017-02-17T12:02:07.268Z,6.30
2017-02-17T12:03:07.118Z,6.46
2017-02-17T12:04:08.035Z,6.23
2017-02-17T12:05:07.743Z,6.29
2017-02-17T12:06:07.334Z,6.37
2017-02-17T12:07:07.841Z,6.20
2017-02-17T12:08:07.347Z,6.35
2017-02-17T12:09:07.919Z,6.23
2017-02-17T12:10:07.556Z,6.15
2017-02-17T12:11:07.448Z,6.27
2017-02-17T12:12:08.051Z,6.10
2017-02-17T12:13:07.690Z,6.34
2017-02-17T12:14:07.229Z,6.26
2017-02-17T12:15:07.848Z,6.01
2017-02-17T12:16:07.454Z,5.71
2017-02-17T12:17:08.200Z,5.98
2017-02-17T12:18:07.834Z,6.09
2017-02-17T12:19:07.382Z,6.27
2017-02-17T12:20:08.014Z,5.99
2017-02-17T12:21:07.580Z,6.24
2017-02-17T12:22:07.202Z,6.26
2017-02-17T12:23:07.833Z,6.35
2017-02-17T12:24:07.362Z,6.35
2017-02-17T12:25:07.970Z,6.36
2017-02-17T12:26:07.536Z,6.25
2017-02-17T12:27:17.088Z,6.36
2017-02-17T12:28:07.591Z,6.31
2017-02-17T12:29:07.043Z,6.40
2017-02-17T12:30:07.720Z,6.21
2017-02-17T12:31:07.600Z,6.30
2017-02-17T12:32:07.146Z,6.49
2017-02-17T12:33:07.651Z,6.48
2017-02-17T12:34:07.178Z,6.46
2017-02-17T12:35:07.766Z,6.44
2017-02-17T12:36:07.371Z,6.49
2017-02-17T12:37:07.953Z,6.39
2017-02-17T12:38:07.877Z,6.34
2017-02-17T12:39:08.340Z,6.25
2017-02-17T12:40:07.924Z,6.24
2017-02-17T12:41:07.570Z,6.41
2017-02-17T12:42:07.449Z,6.19
2017-02-17T12:43:08.026Z,6.17
2017-02-17T12:44:07.683Z,6.24
2017-02-17T12:45:07.303Z,6.24
2017-02-17T12:46:07.206Z,6.27
2017-02-17T12:47:07.916Z,6.31
2017-02-17T12:48:07.626Z,6.36
2017-02-17T12:49:07.183Z,6.30
2017-02-17T12:50:07.849Z,6.15
2017-02-17T12:51:07.374Z,6.23
2017-02-17T12:52:08.011Z,6.32
2017-02-17T12:53:07.565Z,6.30
2017-02-17T12:54:07.189Z,6.42
2017-02-17T12:55:07.871Z,6.31
2017-02-17T12:56:07.516Z,6.37
2017-02-17T12:57:08.302Z,6.34
2017-02-17T12:58:07.927Z,6.29
2017-02-17T12:59:07.437Z,6.39
2017-02-17T13:00:08.099Z,6.40
2017-02-17T13:01:07.870Z,6.36
2017-02-17T13:02:07.479Z,6.29
2017-02-17T13:03:08.065Z,6.31
2017-02-17T13:04:07.696Z,6.14
2017-02-17T13:05:07.574Z,6.31
2017-02-17T13:06:07.197Z,6.35
2017-02-17T13:07:07.758Z,6.32
2017-02-17T13:08:07.337Z,6.30
2017-02-17T13:09:07.983Z,6.44
2017-02-17T13:10:07.643Z,6.27
2017-02-17T13:11:07.721Z,6.35
2017-02-17T13:12:07.254Z,6.45
2017-02-17T13:13:07.898Z,6.29
2017-02-17T13:14:07.491Z,6.32
2017-02-17T13:15:08.024Z,6.23
2017-02-17T13:16:08.530Z,6.06
2017-02-17T13:17:08.196Z,6.03
2017-02-17T13:18:07.725Z,6.26